Time;durP1;ratioP1;P1;durP2;ratioP2;P2;SDS_P1;SDS_P2;PMS_P1;PMS_P2;Temp;Humidity;BMP_temperature;BMP_pressure;BME280_temperature;BME280_humidity;BME280_pressure;Samples;Min_cycle;Max_cycle;Signal;HPM_P1;HPM_P2
2022/04/29 06:21:30;;;;;;;11.90;1.98;;;15.10;55.00;;;;;;5674096;23;20055;-70
2022/04/29 06:23:55;;;;;;;14.48;2.45;;;15.10;56.50;;;;;;4932509;29;20071;-69
2022/04/29 06:26:21;;;;;;;6.03;2.00;;;15.20;57.20;;;;;;4936937;29;20058;-71
2022/04/29 06:28:47;;;;;;;10.40;2.47;;;15.20;57.20;;;;;;4940519;29;20052;-70
2022/04/29 06:31:13;;;;;;;10.82;1.80;;;15.20;57.20;;;;;;4940290;29;20047;-70
2022/04/29 06:33:38;;;;;;;6.25;1.60;;;15.20;57.20;;;;;;4940777;29;20101;-70
2022/04/29 06:36:06;;;;;;;7.00;1.10;;;15.20;57.50;;;;;;4939971;29;20107;-70
2022/04/29 06:38:32;;;;;;;9.30;1.98;;;15.20;57.60;;;;;;4940521;29;20051;-70
2022/04/29 06:40:58;;;;;;;3.13;1.10;;;15.20;57.40;;;;;;4939954;29;20055;-72
2022/04/29 06:43:24;;;;;;;3.58;1.58;;;15.20;57.90;;;;;;4907700;29;20087;-70
2022/04/29 06:45:50;;;;;;;7.22;1.48;;;15.10;56.10;;;;;;4940061;29;20051;-71
2022/04/29 06:48:15;;;;;;;9.38;1.15;;;15.00;56.50;;;;;;4923425;29;20048;-72
2022/04/29 06:50:42;;;;;;;3.95;1.08;;;15.20;58.00;;;;;;4940070;29;20055;-69
2022/04/29 06:53:08;;;;;;;6.35;1.10;;;15.50;57.80;;;;;;4939774;29;20051;-70
2022/04/29 06:55:37;;;;;;;3.80;0.93;;;15.70;57.50;;;;;;4939898;29;20048;-71
2022/04/29 06:58:03;;;;;;;3.60;1.10;;;16.00;57.00;;;;;;4940042;29;20063;-71
2022/04/29 07:00:29;;;;;;;3.20;0.70;;;16.30;56.50;;;;;;4939934;29;20055;-72
2022/04/29 07:02:56;;;;;;;3.20;0.60;;;16.50;56.10;;;;;;4923034;29;20048;-70
2022/04/29 07:05:23;;;;;;;3.95;0.70;;;16.70;55.80;;;;;;4939526;29;20048;-69
2022/04/29 07:07:50;;;;;;;4.93;1.00;;;16.90;55.50;;;;;;4939506;29;20047;-72
2022/04/29 07:10:17;;;;;;;5.45;0.90;;;17.00;55.30;;;;;;4939209;29;20138;-75
2022/04/29 07:12:46;;;;;;;2.20;0.70;;;17.10;55.10;;;;;;4922599;29;20051;-73
2022/04/29 07:15:13;;;;;;;4.32;0.90;;;17.10;55.10;;;;;;4939635;29;20106;-72
2022/04/29 07:17:42;;;;;;;3.72;1.13;;;17.00;54.00;;;;;;4922067;29;20047;-73
2022/04/29 07:20:09;;;;;;;8.15;1.40;;;16.90;55.80;;;;;;4939049;29;20059;-74
2022/04/29 07:22:39;;;;;;;18.95;2.00;;;16.80;56.90;;;;;;4925232;29;20064;-73
2022/04/29 07:25:09;;;;;;;15.38;1.63;;;17.00;56.90;;;;;;4938813;29;20123;-72
2022/04/29 07:27:35;;;;;;;11.05;1.83;;;17.10;57.00;;;;;;4938579;29;20058;-72
2022/04/29 07:30:03;;;;;;;18.10;1.90;;;17.10;56.00;;;;;;4939199;29;20408;-73
2022/04/29 07:32:28;;;;;;;15.20;1.63;;;17.00;57.40;;;;;;4938909;29;20385;-76
2022/04/29 07:43:09;;;;;;;22.85;2.20;;;17.40;57.70;;;;;;4939416;29;20059;-73
2022/04/29 07:45:37;;;;;;;12.52;2.00;;;17.50;57.80;;;;;;4939012;29;20143;-75
2022/04/29 07:48:06;;;;;;;24.35;3.08;;;17.60;58.00;;;;;;4939107;29;20126;-73
2022/04/29 07:50:33;;;;;;;15.70;1.73;;;17.70;58.00;;;;;;4938479;29;20051;-74
2022/04/29 07:53:00;;;;;;;22.48;3.00;;;17.80;58.30;;;;;;4938386;29;20051;-76
2022/04/29 07:55:26;;;;;;;15.95;2.42;;;17.80;58.50;;;;;;4938988;29;20055;-73
2022/04/29 07:57:52;;;;;;;18.10;2.13;;;17.90;58.60;;;;;;4938549;29;20048;-73
2022/04/29 08:00:18;;;;;;;19.63;2.53;;;18.00;58.60;;;;;;4938736;29;20126;-74
2022/04/29 08:02:44;;;;;;;13.73;2.20;;;18.00;58.60;;;;;;4937750;29;20122;-74
2022/04/29 08:05:11;;;;;;;14.68;2.13;;;18.00;58.60;;;;;;4937790;29;20062;-75
2022/04/29 08:07:37;;;;;;;19.15;2.53;;;18.10;58.60;;;;;;4938894;29;20058;-74
2022/04/29 08:10:03;;;;;;;26.80;3.40;;;18.10;58.60;;;;;;4937444;29;20059;-73
2022/04/29 08:12:29;;;;;;;21.13;2.05;;;18.00;58.60;;;;;;4938481;29;20047;-74
2022/04/29 08:14:58;;;;;;;10.13;2.25;;;18.00;58.90;;;;;;4938549;29;20059;-74
2022/04/29 08:17:25;;;;;;;9.80;1.88;;;18.00;58.80;;;;;;4938616;29;20059;-75
2022/04/29 08:19:51;;;;;;;16.60;2.03;;;18.00;59.30;;;;;;4938611;29;20048;-75
2022/04/29 08:22:18;;;;;;;17.70;2.45;;;17.90;59.60;;;;;;4937579;29;20043;-78
2022/04/29 08:24:44;;;;;;;18.55;2.35;;;17.90;59.90;;;;;;4938302;29;20051;-73
2022/04/29 08:27:10;;;;;;;16.95;1.67;;;17.90;59.00;;;;;;4938479;29;20055;-76
2022/04/29 08:29:37;;;;;;;23.38;2.75;;;17.80;57.50;;;;;;4938005;29;20044;-77
2022/04/29 08:32:04;;;;;;;19.95;3.25;;;17.70;56.90;;;;;;4936768;29;20048;-77
2022/04/29 08:34:30;;;;;;;20.20;2.88;;;17.70;57.50;;;;;;4938126;29;20062;-77
2022/04/29 08:36:56;;;;;;;21.17;2.90;;;17.70;57.60;;;;;;4936947;29;20051;-80
2022/04/29 08:39:21;;;;;;;17.65;2.38;;;17.70;57.50;;;;;;4937995;29;20052;-77
2022/04/29 08:41:50;;;;;;;33.13;3.17;;;17.70;57.50;;;;;;4937401;29;20139;-78
2022/04/29 08:44:18;;;;;;;12.20;2.85;;;17.70;57.20;;;;;;4937973;29;20134;-78
2022/04/29 08:46:44;;;;;;;12.85;2.40;;;17.70;56.70;;;;;;4937428;29;20139;-79
2022/04/29 08:49:11;;;;;;;11.93;1.70;;;17.70;56.40;;;;;;4938141;29;20051;-80
2022/04/29 08:51:40;;;;;;;13.80;2.63;;;17.70;55.80;;;;;;4936892;29;20126;-80
2022/04/29 08:54:06;;;;;;;12.60;1.98;;;17.70;55.80;;;;;;4937828;29;20131;-77
2022/04/29 08:59:19;;;;;;;10.43;2.20;;;17.70;56.00;;;;;;4937738;29;20051;-76
2022/04/29 09:01:45;;;;;;;11.63;1.38;;;17.70;55.80;;;;;;4937689;29;20124;-75
2022/04/29 09:04:11;;;;;;;15.00;2.08;;;17.70;55.80;;;;;;4937679;29;20387;-75
2022/04/29 09:06:50;;;;;;;18.30;2.15;;;17.70;56.30;;;;;;4938272;29;20054;-74
2022/04/29 09:09:21;;;;;;;15.77;2.15;;;17.70;55.70;;;;;;4937937;29;20062;-73
2022/04/29 09:11:47;;;;;;;19.23;2.15;;;17.80;55.90;;;;;;4937396;29;20051;-71
2022/04/29 09:14:23;;;;;;;21.45;2.28;;;17.80;55.90;;;;;;4937895;29;20483;-71
2022/04/29 09:16:49;;;;;;;19.25;2.65;;;17.80;56.10;;;;;;4936594;29;20063;-72
2022/04/29 09:19:35;;;;;;;19.75;2.58;;;17.90;56.10;;;;;;4937717;29;20055;-71
2022/04/29 09:22:07;;;;;;;22.35;2.80;;;17.90;56.30;;;;;;4937587;29;20055;-72
2022/04/29 09:24:34;;;;;;;22.88;2.35;;;17.90;56.30;;;;;;4921005;29;20143;-71
2022/04/29 09:27:01;;;;;;;17.80;2.88;;;17.90;56.50;;;;;;4937578;29;20099;-70
2022/04/29 09:29:30;;;;;;;13.95;2.00;;;17.90;57.20;;;;;;4934473;29;20134;-71
2022/04/29 09:31:58;;;;;;;11.35;1.83;;;17.70;57.10;;;;;;4937290;29;20119;-74
2022/04/29 09:34:50;;;;;;;16.52;2.20;;;17.80;56.70;;;;;;4936703;29;20195;-75
2022/04/29 09:37:18;;;;;;;16.90;2.22;;;17.80;56.70;;;;;;4937410;29;20055;-74
2022/04/29 09:40:04;;;;;;;15.35;2.60;;;17.90;56.50;;;;;;4936885;29;20055;-71
2022/04/29 09:42:38;;;;;;;12.82;2.17;;;17.90;55.70;;;;;;4940789;29;20058;-71
2022/04/29 09:45:24;;;;;;;12.10;1.83;;;17.90;55.60;;;;;;4941330;29;20114;-72
2022/04/29 09:47:55;;;;;;;14.10;2.80;;;18.00;55.60;;;;;;4940910;29;20051;-72
2022/04/29 09:50:21;;;;;;;12.60;2.22;;;18.00;55.70;;;;;;4941082;29;20052;-71
2022/04/29 09:52:49;;;;;;;18.67;2.50;;;18.00;55.90;;;;;;4939106;29;20058;-72
2022/04/29 09:55:19;;;;;;;18.20;2.40;;;17.90;55.40;;;;;;4939370;29;20372;-71
2022/04/29 09:58:01;;;;;;;13.82;2.53;;;17.90;55.20;;;;;;4939525;29;20047;-71
2022/04/29 10:00:27;;;;;;;12.45;2.33;;;17.90;54.40;;;;;;4940344;29;20364;-71
2022/04/29 10:02:52;;;;;;;17.08;2.58;;;17.90;55.00;;;;;;4940057;29;20051;-72
2022/04/29 10:05:19;;;;;;;17.90;2.42;;;18.00;55.30;;;;;;4940882;29;20062;-70
2022/04/29 10:07:45;;;;;;;15.95;2.22;;;18.00;55.40;;;;;;4940731;29;20051;-75
2022/04/29 10:10:11;;;;;;;14.32;2.33;;;18.10;55.40;;;;;;4940539;29;20138;-74
2022/04/29 10:12:37;;;;;;;14.15;2.42;;;18.00;55.10;;;;;;4939209;29;20067;-76
2022/04/29 10:15:09;;;;;;;9.77;2.13;;;17.90;55.20;;;;;;4940296;29;20059;-72
2022/04/29 10:23:08;;;;;;;10.75;2.15;;;17.40;57.30;;;;;;4951027;29;20059;-72
2022/04/29 10:25:35;;;;;;;9.07;1.77;;;17.30;57.40;;;;;;4959191;29;20051;-71
2022/04/29 10:28:02;;;;;;;10.95;2.05;;;17.30;57.80;;;;;;4959546;29;20043;-72
2022/04/29 10:30:33;;;;;;;5.88;1.75;;;17.30;57.80;;;;;;4958779;29;20050;-71
2022/04/29 10:33:24;;;;;;;13.90;2.05;;;17.30;57.90;;;;;;4929271;29;20110;-72
2022/04/29 10:35:56;;;;;;;9.38;1.52;;;17.30;58.60;;;;;;4939018;29;20048;-70
2022/04/29 10:38:38;;;;;;;10.40;1.95;;;17.30;58.40;;;;;;4940325;29;20043;-71
2022/04/29 10:41:07;;;;;;;8.50;1.50;;;17.30;58.50;;;;;;4939677;29;20098;-72
2022/04/29 10:43:38;;;;;;;8.20;2.05;;;17.30;58.50;;;;;;4939636;29;20074;-76
2022/04/29 10:46:04;;;;;;;10.70;1.60;;;17.30;58.70;;;;;;4939960;29;20048;-73
2022/04/29 10:48:36;;;;;;;7.10;1.80;;;17.30;58.40;;;;;;4939616;29;20467;-72
2022/04/29 10:51:14;;;;;;;11.10;2.42;;;17.40;58.20;;;;;;4939780;29;20059;-72
2022/04/29 10:53:42;;;;;;;12.27;1.55;;;17.40;57.30;;;;;;4940695;29;20059;-71
2022/04/29 10:56:26;;;;;;;7.80;1.85;;;17.40;56.30;;;;;;4939422;29;20083;-70
2022/04/29 10:58:53;;;;;;;7.85;1.50;;;17.40;56.50;;;;;;4923356;29;20052;-70
2022/04/29 11:01:31;;;;;;;12.85;2.42;;;17.40;56.30;;;;;;4945973;29;20055;-71
2022/04/29 11:03:57;;;;;;;12.43;1.48;;;17.30;56.30;;;;;;4958963;29;20051;-71
2022/04/29 11:06:35;;;;;;;5.00;1.48;;;17.30;56.20;;;;;;4947312;29;20080;-70
2022/04/29 11:09:01;;;;;;;8.55;1.73;;;17.40;56.20;;;;;;4938974;29;20047;-72
2022/04/29 11:11:43;;;;;;;16.30;2.35;;;17.50;55.80;;;;;;4938585;29;20044;-73
2022/04/29 11:14:10;;;;;;;11.38;2.30;;;17.60;55.70;;;;;;4922697;29;20158;-73
2022/04/29 11:17:08;;;;;;;11.02;1.83;;;17.70;55.70;;;;;;4938294;29;20575;-72
2022/04/29 11:19:36;;;;;;;14.55;2.42;;;17.80;55.70;;;;;;4930156;29;20079;-72
2022/04/29 11:24:49;;;;;;;10.45;2.17;;;17.90;55.90;;;;;;4924359;29;20385;-73
2022/04/29 11:27:37;;;;;;;8.70;2.38;;;18.00;56.10;;;;;;4939308;29;20063;-74
2022/04/29 11:30:03;;;;;;;17.05;2.10;;;18.00;55.90;;;;;;4939939;29;20413;-73
2022/04/29 11:32:30;;;;;;;13.07;1.98;;;18.00;56.30;;;;;;4938926;29;20155;-75
2022/04/29 11:35:00;;;;;;;14.52;1.83;;;18.00;56.80;;;;;;4936507;29;20059;-71
2022/04/29 11:37:33;;;;;;;12.43;2.22;;;18.00;57.10;;;;;;4939244;29;20070;-71
2022/04/29 11:40:08;;;;;;;7.60;1.58;;;18.00;57.30;;;;;;4939386;29;20091;-72
2022/04/29 11:42:34;;;;;;;8.90;1.95;;;17.90;57.50;;;;;;4922671;29;20138;-71
2022/04/29 11:45:07;;;;;;;8.48;1.95;;;18.00;57.60;;;;;;4939696;29;20123;-75
2022/04/29 11:47:33;;;;;;;13.27;2.47;;;18.00;57.90;;;;;;4937846;29;20138;-74
2022/04/29 11:50:00;;;;;;;15.20;2.35;;;17.90;58.30;;;;;;4930318;29;20379;-73
2022/04/29 11:52:29;;;;;;;12.30;2.30;;;17.90;58.50;;;;;;4920004;29;20052;-75
2022/04/29 11:54:59;;;;;;;18.70;2.78;;;17.90;58.70;;;;;;4905726;29;20047;-75
2022/04/29 11:57:30;;;;;;;16.63;2.10;;;17.90;58.50;;;;;;4938456;29;20044;-73
2022/04/29 11:59:56;;;;;;;15.18;2.33;;;17.90;58.20;;;;;;4938839;29;20467;-71
2022/04/29 12:02:23;;;;;;;16.67;2.50;;;17.80;57.70;;;;;;4937972;29;20075;-71
2022/04/29 12:04:55;;;;;;;7.68;1.98;;;17.90;57.30;;;;;;4938187;29;20055;-71
2022/04/29 12:07:23;;;;;;;10.90;1.90;;;17.80;56.60;;;;;;4921754;29;20127;-72
2022/04/29 12:09:49;;;;;;;10.57;1.63;;;17.80;56.40;;;;;;4938390;29;20052;-71
2022/04/29 12:12:25;;;;;;;8.38;1.80;;;17.80;56.40;;;;;;4938920;29;20047;-73
2022/04/29 12:14:51;;;;;;;8.85;2.05;;;17.80;56.40;;;;;;4938463;29;20054;-72
2022/04/29 12:17:17;;;;;;;9.65;2.45;;;17.80;56.50;;;;;;4938308;29;20059;-71
2022/04/29 12:19:43;;;;;;;9.20;1.92;;;17.80;56.60;;;;;;4937875;29;20043;-72
2022/04/29 12:22:11;;;;;;;9.13;2.30;;;17.80;56.60;;;;;;4921753;29;20060;-71
2022/04/29 12:24:42;;;;;;;11.80;1.55;;;17.90;56.60;;;;;;4937981;29;20452;-72
2022/04/29 12:27:09;;;;;;;7.35;1.77;;;17.90;56.60;;;;;;4938437;29;20127;-72
2022/04/29 12:29:39;;;;;;;11.93;2.03;;;17.90;56.60;;;;;;4938144;29;20139;-71
2022/04/29 12:35:10;;;;;;;9.10;1.83;;;17.90;56.70;;;;;;4938581;29;20055;-72
2022/04/29 12:37:36;;;;;;;7.05;1.50;;;17.90;56.70;;;;;;4937659;29;20143;-71
2022/04/29 12:40:10;;;;;;;7.18;1.40;;;18.00;56.70;;;;;;4937393;29;20052;-71
2022/04/29 12:42:36;;;;;;;4.10;1.10;;;17.90;56.60;;;;;;4938267;29;20114;-72
2022/04/29 12:45:11;;;;;;;7.93;1.25;;;18.00;56.70;;;;;;4938104;29;20103;-72
2022/04/29 12:47:38;;;;;;;6.70;1.10;;;18.00;56.80;;;;;;4938123;29;20055;-71
2022/04/29 12:50:34;;;;;;;5.35;1.10;;;18.00;56.90;;;;;;4938181;29;20047;-71
2022/04/29 12:53:07;;;;;;;4.18;1.27;;;17.90;56.80;;;;;;4937949;29;20062;-71
2022/04/29 12:55:48;;;;;;;5.68;1.17;;;17.90;57.00;;;;;;4937852;29;20043;-72
2022/04/29 12:58:16;;;;;;;5.55;0.90;;;17.90;57.10;;;;;;4937838;29;20056;-73
2022/04/29 13:00:44;;;;;;;6.00;1.30;;;17.90;57.30;;;;;;4938002;29;21566;-72
2022/04/29 13:03:18;;;;;;;4.70;1.40;;;17.90;57.50;;;;;;4937653;29;20084;-73
2022/04/29 13:05:44;;;;;;;5.90;1.55;;;17.80;57.60;;;;;;4938424;29;20052;-73
2022/04/29 13:08:10;;;;;;;3.85;1.17;;;17.80;57.70;;;;;;4938034;29;20453;-73
2022/04/29 13:10:49;;;;;;;5.82;1.13;;;17.80;57.60;;;;;;4937838;29;20058;-72
2022/04/29 13:13:16;;;;;;;4.43;1.52;;;17.90;57.60;;;;;;4937057;29;20471;-75
2022/04/29 13:15:43;;;;;;;5.50;1.67;;;17.90;57.40;;;;;;4940425;29;20083;-75
2022/04/29 13:18:10;;;;;;;8.85;1.52;;;17.90;57.40;;;;;;4940965;29;20421;-73
2022/04/29 13:20:36;;;;;;;10.48;1.98;;;17.90;57.40;;;;;;4940922;29;20044;-75
2022/04/29 13:23:01;;;;;;;10.82;2.08;;;17.90;57.60;;;;;;4951474;29;20121;-75
2022/04/29 13:25:27;;;;;;;12.85;2.25;;;17.90;57.70;;;;;;4960497;29;20059;-77
2022/04/29 13:27:53;;;;;;;6.88;1.60;;;17.80;57.80;;;;;;4960738;29;20052;-76
2022/04/29 13:30:20;;;;;;;6.85;1.60;;;17.80;58.00;;;;;;4958574;29;20476;-74
2022/04/29 13:32:46;;;;;;;8.00;1.50;;;17.80;58.10;;;;;;4941508;29;20040;-72
2022/04/29 13:35:13;;;;;;;11.00;2.10;;;17.80;56.70;;;;;;4941896;29;20051;-73
2022/04/29 13:37:39;;;;;;;6.78;2.10;;;17.80;56.60;;;;;;4940882;29;20452;-75
2022/04/29 13:40:08;;;;;;;14.30;2.00;;;17.80;56.60;;;;;;4941450;29;20039;-80
2022/04/29 13:42:36;;;;;;;9.40;1.70;;;17.80;56.70;;;;;;4941233;29;20044;-77
2022/04/29 13:45:03;;;;;;;8.88;1.85;;;17.80;56.70;;;;;;4941123;29;20048;-78
2022/04/29 13:47:29;;;;;;;8.90;1.80;;;17.90;56.20;;;;;;4921058;29;20547;-73
2022/04/29 13:49:55;;;;;;;5.45;2.13;;;17.90;55.50;;;;;;4940950;29;20126;-73
2022/04/29 13:55:06;;;;;;;5.78;1.95;;;17.80;55.00;;;;;;4941102;29;20408;-74
2022/04/29 13:57:32;;;;;;;8.68;2.50;;;17.90;55.50;;;;;;4941663;29;20206;-74
2022/04/29 13:59:59;;;;;;;6.28;1.88;;;17.90;55.50;;;;;;4940811;29;20436;-74
2022/04/29 14:02:26;;;;;;;10.38;2.42;;;17.90;55.00;;;;;;4947361;29;20043;-74
2022/04/29 14:04:52;;;;;;;6.35;1.83;;;17.90;54.50;;;;;;4924241;29;20436;-73
2022/04/29 14:07:17;;;;;;;4.72;1.77;;;17.90;54.20;;;;;;4924315;29;20059;-74
2022/04/29 14:09:43;;;;;;;5.13;1.63;;;18.00;54.40;;;;;;4940876;29;20425;-74
2022/04/29 14:12:12;;;;;;;7.95;2.50;;;18.00;54.40;;;;;;4936732;29;20079;-73
2022/04/29 14:14:39;;;;;;;11.40;3.03;;;17.90;54.80;;;;;;4921142;29;20054;-76
2022/04/29 14:17:05;;;;;;;13.60;3.40;;;18.00;55.30;;;;;;4940201;29;20047;-72
2022/04/29 14:19:31;;;;;;;10.52;2.55;;;18.00;55.60;;;;;;4940687;29;20047;-73
2022/04/29 14:21:56;;;;;;;13.13;2.28;;;18.00;55.90;;;;;;4940530;29;20055;-72
2022/04/29 14:24:22;;;;;;;16.52;2.25;;;18.00;55.80;;;;;;4940333;29;20537;-73
2022/04/29 14:26:48;;;;;;;10.45;2.10;;;18.00;55.90;;;;;;4939349;29;20110;-72
2022/04/29 14:29:16;;;;;;;10.65;2.10;;;18.10;56.00;;;;;;4940048;29;20175;-75
2022/04/29 14:31:42;;;;;;;15.90;5.38;;;18.00;56.10;;;;;;4923690;29;20357;-71
2022/04/29 14:34:08;;;;;;;11.98;7.35;;;18.00;56.30;;;;;;4920801;29;20067;-72
2022/04/29 14:36:34;;;;;;;13.25;6.25;;;18.00;56.50;;;;;;4940234;29;20040;-72
2022/04/29 14:39:00;;;;;;;12.15;8.32;;;17.90;56.60;;;;;;4939917;29;20135;-72
2022/04/29 14:41:27;;;;;;;15.10;11.07;;;17.90;56.80;;;;;;4936934;29;20113;-72
2022/04/29 14:43:53;;;;;;;16.83;11.48;;;17.90;57.10;;;;;;4940185;29;20064;-74
2022/04/29 14:46:19;;;;;;;12.30;9.88;;;17.90;57.40;;;;;;4940087;29;20051;-76
2022/04/29 14:48:45;;;;;;;15.63;10.27;;;17.90;57.30;;;;;;4940278;29;20039;-70
2022/04/29 14:51:10;;;;;;;17.50;10.95;;;17.90;57.10;;;;;;4940186;29;20148;-73
2022/04/29 14:53:37;;;;;;;17.02;10.95;;;17.80;58.30;;;;;;4939641;29;20054;-72
2022/04/29 14:56:09;;;;;;;13.57;11.00;;;17.90;59.40;;;;;;4939930;29;20122;-72
2022/04/29 14:58:35;;;;;;;14.38;10.07;;;17.90;59.50;;;;;;4939895;29;20058;-71
2022/04/29 15:01:01;;;;;;;12.20;10.30;;;17.80;59.50;;;;;;4929206;29;20059;-72
2022/04/29 15:03:27;;;;;;;13.48;9.63;;;17.80;59.90;;;;;;4939484;29;20051;-71
2022/04/29 15:05:56;;;;;;;11.45;9.77;;;17.80;60.10;;;;;;4939585;29;20114;-71
2022/04/29 15:08:22;;;;;;;13.75;9.60;;;17.80;60.60;;;;;;4939618;29;20053;-71
2022/04/29 15:16:17;;;;;;;13.93;10.27;;;17.80;62.30;;;;;;4939471;29;20051;-72
2022/04/29 15:18:44;;;;;;;11.27;9.95;;;17.80;63.10;;;;;;4939265;29;20106;-72
2022/04/29 15:21:10;;;;;;;15.98;9.55;;;17.80;63.10;;;;;;4933078;29;20051;-72
2022/04/29 15:23:35;;;;;;;10.30;9.30;;;17.80;62.90;;;;;;4932523;29;20066;-72
2022/04/29 15:26:01;;;;;;;11.55;8.95;;;17.80;62.80;;;;;;4938825;29;20055;-72
2022/04/29 15:28:27;;;;;;;15.77;8.80;;;17.80;62.40;;;;;;4938194;29;20063;-74
2022/04/29 15:30:53;;;;;;;9.43;7.30;;;17.90;61.60;;;;;;4938946;29;20123;-74
2022/04/29 15:33:21;;;;;;;12.80;6.28;;;17.90;60.80;;;;;;4920422;29;20051;-72
2022/04/29 15:35:50;;;;;;;15.85;5.07;;;17.90;60.00;;;;;;4919970;29;20115;-71
2022/04/29 15:38:16;;;;;;;9.60;4.47;;;17.90;59.00;;;;;;4919501;29;20476;-73
2022/04/29 15:40:47;;;;;;;10.02;4.43;;;17.90;59.50;;;;;;4931872;29;20044;-71
2022/04/29 15:43:16;;;;;;;9.38;4.13;;;17.90;60.40;;;;;;4937765;29;20058;-71
2022/04/29 15:45:43;;;;;;;10.75;4.25;;;17.90;60.70;;;;;;4938931;29;20491;-70
2022/04/29 15:48:11;;;;;;;11.30;3.55;;;17.80;60.10;;;;;;4938473;29;20059;-70
2022/04/29 15:50:38;;;;;;;8.82;3.65;;;17.80;59.50;;;;;;4939182;29;20352;-71
2022/04/29 15:53:05;;;;;;;13.10;4.10;;;17.80;58.90;;;;;;4938698;29;20419;-70
2022/04/29 15:55:31;;;;;;;8.98;3.50;;;17.70;58.50;;;;;;4938747;29;20130;-70
2022/04/29 15:57:57;;;;;;;12.18;3.47;;;17.70;58.50;;;;;;4938631;29;20055;-70
2022/04/29 16:00:23;;;;;;;15.43;4.25;;;17.70;58.20;;;;;;4938902;29;20063;-70
2022/04/29 16:02:48;;;;;;;16.52;3.75;;;17.70;58.30;;;;;;4938115;29;20063;-69
2022/04/29 16:05:15;;;;;;;10.65;3.50;;;17.70;58.20;;;;;;4938175;29;20082;-70
2022/04/29 16:07:40;;;;;;;10.93;3.28;;;17.60;58.10;;;;;;4938540;29;20108;-71
2022/04/29 16:10:07;;;;;;;9.18;3.35;;;17.70;58.30;;;;;;4938512;29;20059;-73
2022/04/29 16:12:33;;;;;;;13.52;3.30;;;17.60;58.60;;;;;;4939243;29;20103;-70
2022/04/29 16:14:59;;;;;;;7.57;3.10;;;17.60;58.40;;;;;;4938772;29;20063;-71
2022/04/29 16:25:39;;;;;;;11.50;3.38;;;17.70;58.50;;;;;;4938616;29;20055;-72
2022/04/29 16:28:05;;;;;;;10.20;3.75;;;17.70;58.60;;;;;;4938153;29;20047;-72
2022/04/29 16:30:32;;;;;;;13.23;2.95;;;17.60;58.40;;;;;;4938029;29;20056;-71
2022/04/29 16:32:59;;;;;;;13.02;3.03;;;17.60;58.20;;;;;;4937789;29;20051;-70
2022/04/29 16:35:25;;;;;;;15.52;3.70;;;17.70;57.70;;;;;;4938721;29;20044;-72
2022/04/29 16:37:52;;;;;;;9.52;2.72;;;17.70;58.20;;;;;;4937980;29;20114;-74
2022/04/29 16:40:17;;;;;;;19.55;4.00;;;17.70;58.70;;;;;;4938197;29;20130;-75
2022/04/29 16:42:43;;;;;;;17.48;3.60;;;17.70;58.70;;;;;;4920971;29;20460;-71
2022/04/29 16:45:10;;;;;;;11.32;2.97;;;17.70;58.40;;;;;;4938363;29;20059;-70
2022/04/29 16:47:36;;;;;;;11.75;2.60;;;17.70;57.30;;;;;;4935108;29;20075;-70
2022/04/29 16:50:02;;;;;;;11.25;2.28;;;17.70;56.80;;;;;;4937360;29;20079;-70
2022/04/29 16:52:27;;;;;;;10.30;2.55;;;17.70;57.10;;;;;;4937795;29;20484;-70
2022/04/29 16:54:53;;;;;;;14.18;3.05;;;17.70;57.20;;;;;;4938069;29;20055;-70
2022/04/29 17:00:05;;;;;;;14.18;2.47;;;17.70;57.90;;;;;;4937811;29;20055;-70
2022/04/29 17:02:30;;;;;;;9.35;2.53;;;17.70;58.10;;;;;;4937141;29;20047;-70
2022/04/29 17:04:56;;;;;;;12.07;2.13;;;17.70;58.30;;;;;;4938013;29;20048;-70
2022/04/29 17:07:22;;;;;;;8.82;2.15;;;17.70;58.40;;;;;;4937598;29;20043;-70
2022/04/29 17:09:47;;;;;;;10.15;1.90;;;17.70;58.40;;;;;;4937615;29;20051;-70
2022/04/29 17:12:13;;;;;;;9.45;2.00;;;17.70;58.50;;;;;;4938017;29;20110;-70
2022/04/29 17:14:38;;;;;;;16.20;3.33;;;17.70;58.70;;;;;;4938146;29;20456;-70
2022/04/29 17:17:05;;;;;;;7.45;2.15;;;17.70;58.50;;;;;;4937574;29;20099;-72
2022/04/29 17:19:30;;;;;;;6.78;1.88;;;17.70;58.40;;;;;;4937694;29;20052;-71
2022/04/29 17:21:56;;;;;;;5.63;1.85;;;17.70;58.10;;;;;;4937353;29;20052;-71
2022/04/29 17:24:22;;;;;;;4.57;1.40;;;17.70;57.20;;;;;;4920320;29;20051;-70
2022/04/29 17:26:48;;;;;;;4.20;1.40;;;17.70;55.60;;;;;;4937445;29;20059;-70
2022/04/29 17:29:18;;;;;;;6.95;1.33;;;17.70;55.80;;;;;;4938029;29;20062;-70
2022/04/29 17:31:44;;;;;;;5.30;1.45;;;17.60;55.30;;;;;;4937305;29;20087;-70
2022/04/29 17:34:10;;;;;;;3.65;1.08;;;17.60;55.10;;;;;;4937276;29;20055;-70
2022/04/29 17:36:37;;;;;;;5.63;1.52;;;17.60;55.30;;;;;;4937556;29;20039;-70
2022/04/29 17:39:03;;;;;;;4.38;1.20;;;17.50;55.50;;;;;;4936863;29;20071;-70
2022/04/29 17:44:15;;;;;;;9.73;1.90;;;17.60;55.70;;;;;;4936784;29;20555;-72
2022/04/29 17:46:43;;;;;;;3.78;1.10;;;17.50;56.30;;;;;;4929524;29;20048;-71
2022/04/29 17:49:17;;;;;;;6.72;1.00;;;17.50;56.60;;;;;;4936559;29;20062;-70
2022/04/29 17:51:43;;;;;;;4.25;1.45;;;17.50;56.40;;;;;;4938139;29;20051;-71
2022/04/29 17:54:09;;;;;;;5.95;1.30;;;17.50;56.30;;;;;;4934538;29;20066;-71
2022/04/29 17:56:35;;;;;;;8.10;1.48;;;17.50;56.90;;;;;;4937388;29;20044;-70
2022/04/29 17:59:00;;;;;;;8.63;1.30;;;17.50;56.30;;;;;;4937805;29;20059;-70
2022/04/29 18:01:26;;;;;;;4.80;0.93;;;17.50;56.70;;;;;;4937542;29;20043;-70
2022/04/29 18:03:52;;;;;;;7.47;1.20;;;17.50;56.60;;;;;;4941573;29;20114;-70
2022/04/29 18:06:17;;;;;;;8.25;1.00;;;17.50;56.90;;;;;;4940916;29;20107;-70
2022/04/29 18:08:43;;;;;;;6.05;1.25;;;17.50;56.70;;;;;;4937652;29;20091;-70
2022/04/29 18:11:09;;;;;;;5.82;1.13;;;17.50;56.90;;;;;;4941210;29;20058;-71
2022/04/29 18:13:36;;;;;;;6.00;1.60;;;17.50;56.70;;;;;;4941014;29;20051;-70
2022/04/29 18:16:01;;;;;;;3.72;1.50;;;17.50;56.80;;;;;;4940790;29;20052;-70
2022/04/29 18:18:27;;;;;;;3.38;1.10;;;17.50;56.90;;;;;;4940698;29;20345;-71
2022/04/29 18:20:53;;;;;;;5.70;1.30;;;17.50;57.70;;;;;;4940180;29;20498;-71
2022/04/29 18:23:18;;;;;;;5.38;0.95;;;17.50;56.90;;;;;;4940402;29;20052;-71
2022/04/29 18:25:44;;;;;;;8.88;1.48;;;17.40;56.90;;;;;;4939964;29;20452;-71
2022/04/29 18:28:11;;;;;;;6.68;1.10;;;17.40;56.60;;;;;;4940406;29;20118;-73
2022/04/29 18:30:37;;;;;;;7.82;1.52;;;17.40;56.80;;;;;;4939949;29;20091;-73
2022/04/29 18:33:03;;;;;;;7.68;2.03;;;17.40;56.90;;;;;;4940134;29;20082;-73
2022/04/29 18:35:29;;;;;;;5.32;1.52;;;17.40;56.80;;;;;;4940365;29;20106;-74
2022/04/29 18:37:55;;;;;;;6.22;1.83;;;17.40;55.90;;;;;;4923315;29;20063;-73
2022/04/29 18:40:20;;;;;;;5.47;2.38;;;17.50;55.10;;;;;;4940720;29;20047;-71
2022/04/29 18:42:46;;;;;;;5.32;2.00;;;17.50;54.40;;;;;;4940099;29;20142;-72
2022/04/29 18:45:13;;;;;;;5.95;1.98;;;17.50;53.80;;;;;;4939730;29;20428;-73
2022/04/29 18:47:41;;;;;;;4.45;2.00;;;17.50;53.10;;;;;;4940240;29;20052;-72
2022/04/29 18:50:07;;;;;;;6.57;2.53;;;17.40;52.60;;;;;;4940342;29;20052;-73
2022/04/29 18:52:33;;;;;;;6.63;2.60;;;17.40;52.20;;;;;;4939162;29;20338;-73
2022/04/29 18:54:59;;;;;;;3.72;2.10;;;17.40;51.90;;;;;;4939693;29;20059;-72
2022/04/29 18:57:25;;;;;;;5.50;2.47;;;17.30;51.80;;;;;;4939789;29;20572;-74
2022/04/29 18:59:51;;;;;;;5.72;2.50;;;17.30;51.50;;;;;;4923474;29;20135;-73
2022/04/29 19:02:16;;;;;;;5.72;2.88;;;17.30;51.10;;;;;;4926158;29;20049;-73
2022/04/29 19:04:43;;;;;;;7.82;3.17;;;17.20;50.90;;;;;;4922515;29;20059;-72
2022/04/29 19:07:08;;;;;;;6.63;3.45;;;17.20;50.80;;;;;;4936407;29;20059;-73
2022/04/29 19:09:34;;;;;;;6.00;3.25;;;17.20;50.60;;;;;;4939959;29;20047;-73
2022/04/29 19:12:03;;;;;;;5.50;2.78;;;17.10;50.50;;;;;;4940052;29;20349;-73
2022/04/29 19:14:29;;;;;;;6.22;2.63;;;17.10;50.40;;;;;;4930962;29;20047;-73
2022/04/29 19:16:55;;;;;;;6.63;2.60;;;17.10;50.40;;;;;;4922899;29;20179;-73
2022/04/29 19:19:20;;;;;;;9.02;3.80;;;17.00;50.40;;;;;;4939059;29;20463;-74
2022/04/29 19:21:46;;;;;;;4.30;2.85;;;17.00;50.30;;;;;;4939188;29;20048;-73
2022/04/29 19:24:12;;;;;;;5.60;3.10;;;17.00;50.30;;;;;;4939420;29;20047;-74
2022/04/29 19:26:38;;;;;;;3.38;2.70;;;16.90;50.20;;;;;;4939455;29;20048;-71
2022/04/29 19:29:05;;;;;;;5.47;2.30;;;16.90;50.40;;;;;;4939370;29;20432;-71
2022/04/29 19:31:31;;;;;;;7.47;2.63;;;16.90;50.60;;;;;;4921363;29;20048;-71
2022/04/29 19:33:56;;;;;;;3.88;2.50;;;16.90;50.80;;;;;;4923290;29;20051;-74
2022/04/29 19:36:23;;;;;;;5.82;2.80;;;16.90;51.00;;;;;;4922715;29;20043;-71
2022/04/29 19:38:50;;;;;;;3.90;2.35;;;17.00;51.30;;;;;;4939280;29;20094;-71
2022/04/29 19:41:17;;;;;;;5.20;2.53;;;17.00;51.50;;;;;;4939053;29;20464;-71
2022/04/29 19:43:44;;;;;;;5.43;2.85;;;17.00;51.70;;;;;;4922278;29;20122;-71
2022/04/29 19:46:10;;;;;;;5.60;2.75;;;17.00;51.90;;;;;;4922329;29;20444;-71
2022/04/29 19:48:36;;;;;;;5.68;2.53;;;17.00;52.00;;;;;;4939041;29;20036;-71